createdAt,value
2023-11-07T00:00:20.268Z,99816.84
2023-11-07T00:02:49.642Z,99811.94
2023-11-07T00:05:17.743Z,99808.06
2023-11-07T00:07:45.511Z,99823.28
2023-11-07T00:10:14.616Z,99827.06
2023-11-07T00:12:42.705Z,99832.31
2023-11-07T00:15:11.370Z,99827.16
2023-11-07T00:17:39.213Z,99832.53
2023-11-07T00:20:09.401Z,99836.53
2023-11-07T00:22:37.147Z,99838.66
2023-11-07T00:25:05.183Z,99831.78
2023-11-07T00:27:34.849Z,99831.44
2023-11-07T00:30:02.690Z,99840.25
2023-11-07T00:32:30.617Z,99836.19
2023-11-07T00:34:59.090Z,99827.28
2023-11-07T00:37:26.857Z,99837.06
2023-11-07T00:39:54.505Z,99835.00
2023-11-07T00:42:22.238Z,99838.66
2023-11-07T00:44:51.240Z,99844.78
2023-11-07T00:47:19.023Z,99843.06
2023-11-07T00:49:46.682Z,99839.34
2023-11-07T00:52:14.699Z,99849.59
2023-11-07T00:54:42.338Z,99858.75
2023-11-07T00:57:10.742Z,99856.31
2023-11-07T00:59:38.485Z,99856.09
2023-11-07T01:02:08.040Z,99866.00
2023-11-07T01:04:35.763Z,99868.44
2023-11-07T01:07:03.926Z,99871.66
2023-11-07T01:09:31.601Z,99876.75
2023-11-07T01:11:59.319Z,99882.47
2023-11-07T01:14:27.078Z,99881.78
2023-11-07T01:16:54.737Z,99881.38
2023-11-07T01:19:24.176Z,99876.41
2023-11-07T01:21:51.917Z,99886.75
2023-11-07T01:24:19.702Z,99885.50
2023-11-07T01:26:47.601Z,99889.53
2023-11-07T01:29:16.364Z,99880.06
2023-11-07T01:31:44.081Z,99881.66
2023-11-07T01:34:11.891Z,99893.47
2023-11-07T01:36:41.011Z,99887.84
2023-11-07T01:39:09.416Z,99885.16
2023-11-07T01:41:37.321Z,99873.97
2023-11-07T01:44:05.040Z,99877.38
2023-11-07T01:46:33.997Z,99875.91
2023-11-07T01:49:01.763Z,99873.50
2023-11-07T01:51:29.586Z,99875.81
2023-11-07T01:53:59.058Z,99886.84
2023-11-07T01:56:29.237Z,99886.94
2023-11-07T01:58:59.716Z,99886.97
2023-11-07T02:01:28.966Z,99889.47
2023-11-07T02:03:57.306Z,99899.25
2023-11-07T02:06:25.860Z,99896.06
2023-11-07T02:08:53.657Z,99892.41
2023-11-07T02:11:22.771Z,99894.22
2023-11-07T02:13:50.794Z,99867.25
2023-11-07T02:16:19.053Z,99903.78
2023-11-07T02:18:46.913Z,99897.91
2023-11-07T02:21:14.784Z,99893.59
2023-11-07T02:23:44.012Z,99890.69
2023-11-07T02:26:11.734Z,99883.81
2023-11-07T02:28:40.038Z,99884.06
2023-11-07T02:31:08.229Z,99887.50
2023-11-07T02:33:38.745Z,99885.66
2023-11-07T02:36:07.261Z,99879.94
2023-11-07T02:38:35.006Z,99883.59
2023-11-07T02:41:04.897Z,99877.25
2023-11-07T02:43:32.625Z,99880.78
2023-11-07T02:46:00.665Z,99882.75
2023-11-07T02:48:28.443Z,99877.59
2023-11-07T02:50:56.442Z,99864.16
2023-11-07T02:53:24.182Z,99874.31
2023-11-07T02:55:51.861Z,99878.31
2023-11-07T02:58:20.917Z,99881.75
2023-11-07T03:00:48.544Z,99883.59
2023-11-07T03:03:16.862Z,99882.84
2023-11-07T03:05:52.796Z,99886.50
2023-11-07T03:08:20.576Z,99886.28
2023-11-07T03:10:48.254Z,99886.03
2023-11-07T03:13:15.906Z,99895.09
2023-11-07T03:15:45.426Z,99893.63
2023-11-07T03:18:13.252Z,99893.63
2023-11-07T03:20:42.173Z,99890.94
2023-11-07T03:23:11.243Z,99884.69
2023-11-07T03:25:38.884Z,99884.34
2023-11-07T03:28:06.551Z,99893.59
2023-11-07T03:30:34.571Z,99886.41
2023-11-07T03:33:02.331Z,99894.59
2023-11-07T03:35:31.250Z,99886.50
2023-11-07T03:37:59.093Z,99892.88
2023-11-07T03:40:28.192Z,99896.19
2023-11-07T03:42:55.838Z,99891.53
2023-11-07T03:45:23.539Z,99891.53
2023-11-07T03:47:51.276Z,99886.63
2023-11-07T03:50:19.001Z,99892.28
2023-11-07T03:52:46.627Z,99881.16
2023-11-07T03:55:14.354Z,99890.34
2023-11-07T03:57:43.433Z,99902.44
2023-11-07T04:00:11.824Z,99885.66
2023-11-07T04:02:39.848Z,99899.22
2023-11-07T04:05:08.574Z,99895.34
2023-11-07T04:07:36.290Z,99907.19
2023-11-07T04:10:06.806Z,99898.25
2023-11-07T04:12:34.642Z,99903.03
2023-11-07T04:15:07.690Z,99902.56
2023-11-07T04:17:36.011Z,99907.94
2023-11-07T04:20:04.505Z,99908.78
2023-11-07T04:22:32.280Z,99910.63
2023-11-07T04:25:01.365Z,99917.38
2023-11-07T04:27:29.022Z,99909.53
2023-11-07T04:29:56.795Z,99915.03
2023-11-07T04:32:25.906Z,99909.75
2023-11-07T04:34:53.714Z,99913.69
2023-11-07T04:37:21.455Z,99912.34
2023-11-07T04:39:49.597Z,99904.50
2023-11-07T04:42:17.342Z,99907.94
2023-11-07T04:44:45.611Z,99912.22
2023-11-07T04:47:13.748Z,99907.69
2023-11-07T04:49:44.167Z,99914.28
2023-11-07T04:52:12.182Z,99907.81
2023-11-07T04:54:40.042Z,99900.59
2023-11-07T04:57:08.208Z,99904.03
2023-11-07T04:59:38.063Z,99895.72
2023-11-07T05:02:07.457Z,99908.94
2023-11-07T05:04:36.204Z,99900.03
2023-11-07T05:07:06.063Z,99911.75
2023-11-07T05:09:33.720Z,99908.31
2023-11-07T05:12:03.824Z,99914.34
2023-11-07T05:14:31.729Z,99901.84
2023-11-07T05:16:59.899Z,99915.19
2023-11-07T05:19:27.935Z,99913.88
2023-11-07T05:21:56.156Z,99918.50
2023-11-07T05:24:25.488Z,99914.97
2023-11-07T05:26:53.435Z,99923.66
2023-11-07T05:29:21.081Z,99908.50
2023-11-07T05:31:49.014Z,99914.63
2023-11-07T05:34:17.173Z,99908.50
2023-11-07T05:36:44.911Z,99913.25
2023-11-07T05:39:12.546Z,99885.81
2023-11-07T05:41:41.731Z,99915.69
2023-11-07T05:44:09.828Z,99914.09
2023-11-07T05:46:37.626Z,99914.97
2023-11-07T05:49:05.489Z,99917.16
2023-11-07T05:51:33.403Z,99917.03
2023-11-07T05:54:01.098Z,99913.88
2023-11-07T05:56:28.940Z,99918.16
2023-11-07T05:58:57.970Z,99914.72
2023-11-07T06:01:25.836Z,99916.56
2023-11-07T06:03:55.580Z,99906.88
2023-11-07T06:06:25.436Z,99909.81
2023-11-07T06:08:54.732Z,99913.47
2023-11-07T06:11:22.816Z,99912.97
2023-11-07T06:13:50.444Z,99914.81
2023-11-07T06:16:20.000Z,99920.19
2023-11-07T06:18:47.733Z,99930.84
2023-11-07T06:21:15.860Z,99918.44
2023-11-07T06:23:44.649Z,99930.19
2023-11-07T06:26:12.408Z,99937.41
2023-11-07T06:28:40.049Z,99931.28
2023-11-07T06:31:08.079Z,99944.38
2023-11-07T06:33:37.213Z,99943.28
2023-11-07T06:36:05.210Z,99938.63
2023-11-07T06:38:33.033Z,99942.16
2023-11-07T06:41:00.717Z,99956.25
2023-11-07T06:43:28.389Z,99956.13
2023-11-07T06:45:56.963Z,99949.53
2023-11-07T06:48:25.112Z,99962.38
2023-11-07T06:50:55.555Z,99965.69
2023-11-07T06:53:23.245Z,99961.28
2023-11-07T06:55:50.975Z,99961.06
2023-11-07T06:58:18.677Z,99951.25
2023-11-07T07:00:46.329Z,99965.59
2023-11-07T07:03:14.326Z,99964.09
2023-11-07T07:05:42.509Z,99963.34
2023-11-07T07:08:12.053Z,99967.97
2023-11-07T07:10:41.334Z,99959.16
2023-11-07T07:13:09.414Z,99961.25
2023-11-07T07:15:38.166Z,99967.50
2023-11-07T07:18:07.802Z,99974.72
2023-11-07T07:20:37.857Z,99964.06
2023-11-07T07:23:07.234Z,99973.09
2023-11-07T07:25:37.503Z,99975.41
2023-11-07T07:28:05.892Z,99972.19
2023-11-07T07:30:33.914Z,99973.78
2023-11-07T07:33:03.100Z,99971.44
2023-11-07T07:35:34.156Z,99977.56
2023-11-07T07:38:04.395Z,99980.03
2023-11-07T07:40:32.849Z,99969.03
2023-11-07T07:43:10.873Z,99973.56
2023-11-07T07:45:40.643Z,99972.38
2023-11-07T07:48:09.348Z,99979.84
2023-11-07T07:50:42.608Z,99979.50
2023-11-07T07:53:11.842Z,99983.56
2023-11-07T07:55:45.147Z,99981.03
2023-11-07T07:58:20.136Z,99988.38
2023-11-07T08:00:51.145Z,99986.84
2023-11-07T08:03:19.221Z,99996.50
2023-11-07T08:05:47.303Z,99995.28
2023-11-07T08:08:16.132Z,99988.22
2023-11-07T08:10:48.820Z,99993.31
2023-11-07T08:13:19.946Z,99998.47
2023-11-07T08:15:51.176Z,99985.13
2023-11-07T08:18:19.488Z,99987.09
2023-11-07T08:20:47.370Z,100000.59
2023-11-07T08:23:15.076Z,99994.34
2023-11-07T08:25:42.781Z,100005.75
2023-11-07T08:28:11.251Z,100006.47
2023-11-07T08:30:45.597Z,100012.34
2023-11-07T08:33:14.707Z,100018.97
2023-11-07T08:35:42.715Z,100030.50
2023-11-07T08:38:10.452Z,100024.34
2023-11-07T08:40:38.229Z,100011.47
2023-11-07T08:43:06.165Z,100015.78
2023-11-07T08:45:34.854Z,100018.13
2023-11-07T08:48:04.250Z,100033.66
2023-11-07T08:50:33.882Z,100027.19
2023-11-07T08:53:06.166Z,100023.97
2023-11-07T08:55:34.448Z,100029.88
2023-11-07T08:58:02.137Z,100028.53
2023-11-07T09:00:30.709Z,100024.13
2023-11-07T09:02:58.826Z,100036.75
2023-11-07T09:05:28.852Z,100033.81
2023-11-07T09:07:56.843Z,100037.00
2023-11-07T09:10:24.546Z,100042.28
2023-11-07T09:12:52.470Z,100040.34
2023-11-07T09:15:22.685Z,100053.28
2023-11-07T09:17:50.480Z,100035.28
2023-11-07T09:20:18.275Z,100050.97
2023-11-07T09:22:47.937Z,100045.56
2023-11-07T09:25:15.580Z,100050.59
2023-11-07T09:27:43.742Z,100061.16
2023-11-07T09:30:13.246Z,100068.13
2023-11-07T09:32:43.874Z,100054.16
2023-11-07T09:35:12.358Z,100055.63
2023-11-07T09:37:42.149Z,100069.47
2023-11-07T09:40:21.885Z,100069.47
2023-11-07T09:42:52.472Z,100065.44
2023-11-07T09:45:22.347Z,100067.63
2023-11-07T09:47:51.796Z,100075.84
2023-11-07T09:50:21.378Z,100066.88
2023-11-07T09:52:50.551Z,100074.84
2023-11-07T09:55:19.782Z,100080.47
2023-11-07T09:57:58.528Z,100091.13
2023-11-07T10:00:35.036Z,100085.16
2023-11-07T10:03:03.293Z,100023.50
2023-11-07T10:05:33.097Z,100082.13
2023-11-07T10:08:00.835Z,100074.88
2023-11-07T10:10:29.836Z,100070.47
2023-11-07T10:13:09.022Z,100081.75
2023-11-07T10:15:37.196Z,100083.00
2023-11-07T10:18:07.624Z,100085.47
2023-11-07T10:20:36.447Z,100077.03
2023-11-07T10:23:04.611Z,100078.84
2023-11-07T10:25:35.085Z,100086.03
2023-11-07T10:28:04.527Z,100084.34
2023-11-07T10:30:36.754Z,100047.69
2023-11-07T10:33:05.878Z,100083.13
2023-11-07T10:35:33.836Z,100079.84
2023-11-07T10:38:15.771Z,100078.38
2023-11-07T10:40:44.938Z,100079.47
2023-11-07T10:43:12.671Z,100093.19
2023-11-07T10:45:42.549Z,100086.22
2023-11-07T10:48:10.846Z,100089.78
2023-11-07T10:50:40.064Z,100096.03
2023-11-07T10:53:07.811Z,100089.50
2023-11-07T10:55:37.289Z,100083.72
2023-11-07T10:58:10.782Z,100091.00
2023-11-07T11:00:39.480Z,100091.22
2023-11-07T11:03:13.472Z,100091.72
2023-11-07T11:05:45.322Z,100091.47
2023-11-07T11:08:17.312Z,100094.88
2023-11-07T11:10:45.814Z,100090.63
2023-11-07T11:13:17.118Z,100070.88
2023-11-07T11:15:47.597Z,100087.19
2023-11-07T11:18:24.306Z,100095.91
2023-11-07T11:21:03.351Z,100078.59
2023-11-07T11:23:41.827Z,100085.81
2023-11-07T11:26:25.293Z,100071.69
2023-11-07T11:28:54.380Z,100081.50
2023-11-07T11:31:23.178Z,100085.50
2023-11-07T11:34:23.227Z,100077.69
2023-11-07T11:36:55.225Z,100090.50
2023-11-07T11:39:44.476Z,100074.28
2023-11-07T11:42:12.886Z,100074.66
2023-11-07T11:44:42.066Z,100080.78
2023-11-07T11:47:12.957Z,100076.59
2023-11-07T11:50:16.038Z,100069.00
2023-11-07T11:52:43.794Z,100071.63
2023-11-07T11:55:14.185Z,100062.78
2023-11-07T11:58:25.446Z,100094.72
2023-11-07T12:00:56.089Z,100066.56
2023-11-07T12:03:25.297Z,100071.56
2023-11-07T12:06:04.408Z,100077.53
2023-11-07T12:08:40.598Z,100076.50
2023-11-07T12:11:09.092Z,100074.66
2023-11-07T12:13:36.833Z,100062.56
2023-11-07T12:16:21.996Z,100030.16
2023-11-07T12:18:52.423Z,100074.47
2023-11-07T12:21:25.939Z,100067.41
2023-11-07T12:23:54.663Z,100071.06
2023-11-07T12:26:22.765Z,100075.13
2023-11-07T12:28:52.364Z,100063.75
2023-11-07T12:31:25.720Z,100073.50
2023-11-07T12:33:54.089Z,100066.34
2023-11-07T12:36:22.120Z,100055.50
2023-11-07T12:38:50.438Z,100068.88
2023-11-07T12:41:18.314Z,100064.19
2023-11-07T12:43:47.495Z,100056.56
2023-11-07T12:46:17.732Z,100063.34
2023-11-07T12:48:47.144Z,100051.78
2023-11-07T12:51:22.519Z,100058.09
2023-11-07T12:53:51.477Z,100051.38
2023-11-07T12:56:20.891Z,100061.53
2023-11-07T12:58:49.496Z,100054.88
2023-11-07T13:01:17.631Z,100050.63
2023-11-07T13:03:47.026Z,100064.97
2023-11-07T13:06:21.071Z,100021.72
2023-11-07T13:08:49.045Z,100055.34
2023-11-07T13:11:18.482Z,100047.81
2023-11-07T13:13:48.242Z,100044.66
2023-11-07T13:16:17.633Z,100048.16
2023-11-07T13:18:47.796Z,100054.53
2023-11-07T13:21:16.176Z,100040.84
2023-11-07T13:23:44.168Z,100040.84
2023-11-07T13:26:12.275Z,100046.19
2023-11-07T13:28:42.138Z,100051.84
2023-11-07T13:31:11.871Z,100043.84
2023-11-07T13:33:39.790Z,100044.66
2023-11-07T13:36:09.758Z,100056.75
2023-11-07T13:38:37.816Z,100059.78
2023-11-07T13:41:05.899Z,100064.84
2023-11-07T13:43:33.710Z,100064.94
2023-11-07T13:46:01.443Z,100062.88
2023-11-07T13:48:32.328Z,100061.59
2023-11-07T13:51:00.183Z,100070.16
2023-11-07T13:53:30.255Z,100065.53
2023-11-07T13:55:57.960Z,100064.63
2023-11-07T13:58:25.665Z,100075.50
2023-11-07T14:00:53.577Z,100071.34
2023-11-07T14:03:22.449Z,100070.94
2023-11-07T14:05:50.232Z,100067.00
2023-11-07T14:08:17.943Z,100072.06
2023-11-07T14:10:48.171Z,100062.75
2023-11-07T14:13:15.916Z,100063.97
2023-11-07T14:15:43.568Z,100072.34
2023-11-07T14:18:16.907Z,100075.72
2023-11-07T14:20:52.899Z,100083.28
2023-11-07T14:23:20.825Z,100077.38
2023-11-07T14:25:49.941Z,100079.34
2023-11-07T14:28:17.737Z,100079.19
2023-11-07T14:30:45.918Z,100075.38
2023-11-07T14:33:14.497Z,100079.28
2023-11-07T14:35:42.646Z,100085.59
2023-11-07T14:38:10.561Z,100088.09
2023-11-07T14:40:38.455Z,100048.97
2023-11-07T14:43:14.664Z,100095.66
2023-11-07T14:45:45.186Z,100098.88
2023-11-07T14:48:15.525Z,100098.78
2023-11-07T14:50:44.448Z,100098.81
2023-11-07T14:53:15.942Z,100115.25
2023-11-07T14:55:44.183Z,100104.09
2023-11-07T14:58:16.987Z,100115.88
2023-11-07T15:00:44.859Z,100114.06
2023-11-07T15:03:12.902Z,100098.97
2023-11-07T15:05:43.193Z,100117.97
2023-11-07T15:08:11.686Z,100108.53
2023-11-07T15:10:39.823Z,100111.50
2023-11-07T15:13:09.082Z,100115.03
2023-11-07T15:15:38.241Z,100110.25
2023-11-07T15:18:06.646Z,100109.50
2023-11-07T15:20:34.744Z,100117.69
2023-11-07T15:23:03.743Z,100118.91
2023-11-07T15:25:34.550Z,100111.69
2023-11-07T15:28:02.947Z,100119.50
2023-11-07T15:30:31.725Z,100120.09
2023-11-07T15:33:02.337Z,100119.38
2023-11-07T15:35:36.088Z,100108.06
2023-11-07T15:38:07.229Z,100119.69
2023-11-07T15:40:34.309Z,100124.56
2023-11-07T15:43:02.072Z,100124.09
2023-11-07T15:45:32.330Z,100129.59
2023-11-07T15:48:01.679Z,100123.84
2023-11-07T15:50:29.517Z,100122.38
2023-11-07T15:53:07.559Z,100123.56
2023-11-07T15:55:38.307Z,100128.09
2023-11-07T15:58:06.716Z,100127.81
2023-11-07T16:00:35.448Z,100128.22
2023-11-07T16:03:06.313Z,100127.34
2023-11-07T16:05:36.651Z,100125.41
2023-11-07T16:08:07.473Z,100129.72
2023-11-07T16:10:36.156Z,100134.28
2023-11-07T16:13:04.776Z,100145.47
2023-11-07T16:15:33.695Z,100146.03
2023-11-07T16:18:01.750Z,100144.22
2023-11-07T16:20:30.877Z,100143.34
2023-11-07T16:22:58.569Z,100143.09
2023-11-07T16:25:26.385Z,100153.78
2023-11-07T16:27:54.861Z,100145.22
2023-11-07T16:30:22.962Z,100158.81
2023-11-07T16:32:50.975Z,100152.94
2023-11-07T16:35:18.816Z,100158.06
2023-11-07T16:37:49.447Z,100157.56
2023-11-07T16:40:18.763Z,100161.53
2023-11-07T16:42:48.235Z,100159.94
2023-11-07T16:45:16.605Z,100159.81
2023-11-07T16:47:44.882Z,100166.91
2023-11-07T16:50:14.029Z,100158.72
2023-11-07T16:52:41.956Z,100162.97
2023-11-07T16:55:14.623Z,100164.56
2023-11-07T16:57:43.598Z,100153.78
2023-11-07T17:00:12.934Z,100153.75
2023-11-07T17:02:42.025Z,100161.72
2023-11-07T17:05:10.543Z,100152.78
2023-11-07T17:07:38.336Z,100163.56
2023-11-07T17:10:07.901Z,100159.59
2023-11-07T17:12:37.716Z,100147.28
2023-11-07T17:15:08.162Z,100144.47
2023-11-07T17:17:35.954Z,100155.91
2023-11-07T17:20:06.717Z,100144.91
2023-11-07T17:22:35.983Z,100153.31
2023-11-07T17:25:05.625Z,100149.06
2023-11-07T17:27:33.900Z,100147.22
2023-11-07T17:30:03.155Z,100149.91
2023-11-07T17:32:31.015Z,100148.94
2023-11-07T17:35:04.429Z,100148.72
2023-11-07T17:37:32.134Z,100154.22
2023-11-07T17:40:00.356Z,100152.72
2023-11-07T17:42:28.191Z,100154.88
2023-11-07T17:44:56.027Z,100164.56
2023-11-07T17:47:26.706Z,100161.97
2023-11-07T17:49:54.554Z,100160.91
2023-11-07T17:52:22.262Z,100167.50
2023-11-07T17:54:50.917Z,100163.09
2023-11-07T17:57:19.451Z,100173.94
2023-11-07T17:59:52.785Z,100166.41
2023-11-07T18:02:21.472Z,100169.75
2023-11-07T18:04:51.395Z,100159.44
2023-11-07T18:07:19.802Z,100121.03
2023-11-07T18:09:49.885Z,100174.06
2023-11-07T18:12:18.997Z,100165.44
2023-11-07T18:14:46.782Z,100169.66
2023-11-07T18:17:14.449Z,100167.09
2023-11-07T18:19:42.187Z,100170.41
2023-11-07T18:22:11.415Z,100172.56
2023-11-07T18:24:39.204Z,100173.09
2023-11-07T18:27:07.360Z,100174.50
2023-11-07T18:29:35.411Z,100169.13
2023-11-07T18:32:07.637Z,100168.25
2023-11-07T18:34:35.462Z,100171.03
2023-11-07T18:37:05.053Z,100107.38
2023-11-07T18:39:36.823Z,100166.72
2023-11-07T18:42:05.540Z,100165.75
2023-11-07T18:44:35.668Z,100175.88
2023-11-07T18:47:04.099Z,100183.38
2023-11-07T18:49:32.699Z,100187.38
2023-11-07T18:52:00.636Z,100177.91
2023-11-07T18:54:29.072Z,100174.13
2023-11-07T18:56:59.240Z,100167.47
2023-11-07T18:59:34.323Z,100172.22
2023-11-07T19:02:06.101Z,100171.66
2023-11-07T19:04:34.203Z,100173.28
2023-11-07T19:07:01.965Z,100181.44
2023-11-07T19:09:29.807Z,100177.91
2023-11-07T19:12:02.117Z,100179.41
2023-11-07T19:14:30.205Z,100176.84
2023-11-07T19:16:58.013Z,100168.66
2023-11-07T19:19:28.166Z,100184.34
2023-11-07T19:21:57.014Z,100184.56
2023-11-07T19:24:24.871Z,100185.41
2023-11-07T19:26:52.859Z,100181.66
2023-11-07T19:29:21.991Z,100155.63
2023-11-07T19:31:50.524Z,100188.09
2023-11-07T19:34:20.568Z,100188.22
2023-11-07T19:36:49.732Z,100162.72
2023-11-07T19:39:18.615Z,100189.63
2023-11-07T19:41:47.142Z,100189.06
2023-11-07T19:44:16.668Z,100195.22
2023-11-07T19:46:45.915Z,100195.94
2023-11-07T19:49:13.721Z,100196.03
2023-11-07T19:51:42.120Z,100184.72
2023-11-07T19:54:10.164Z,100202.16
2023-11-07T19:56:38.872Z,100197.34
2023-11-07T19:59:08.308Z,100196.91
2023-11-07T20:01:36.656Z,100195.50
2023-11-07T20:04:06.172Z,100201.75
2023-11-07T20:06:34.047Z,100200.69
2023-11-07T20:09:01.832Z,100204.53
2023-11-07T20:11:30.345Z,100205.50
2023-11-07T20:13:58.258Z,100198.59
2023-11-07T20:16:25.979Z,100225.47
2023-11-07T20:18:54.377Z,100206.47
2023-11-07T20:21:23.543Z,100215.59
2023-11-07T20:23:51.464Z,100218.78
2023-11-07T20:26:19.765Z,100216.09
2023-11-07T20:28:50.578Z,100212.44
2023-11-07T20:31:18.645Z,100216.75
2023-11-07T20:36:16.624Z,100218.47
2023-11-07T20:38:46.418Z,100213.31
2023-11-07T20:41:16.750Z,100214.47
2023-11-07T20:43:44.447Z,100207.28
2023-11-07T20:46:27.241Z,100168.97
2023-11-07T20:49:02.624Z,100209.19
2023-11-07T20:51:32.392Z,100211.25
2023-11-07T20:54:01.774Z,100206.00
2023-11-07T20:56:30.692Z,100210.50
2023-11-07T20:58:58.851Z,100206.84
2023-11-07T21:01:27.878Z,100214.03
2023-11-07T21:03:57.385Z,100212.97
2023-11-07T21:06:25.834Z,100190.59
2023-11-07T21:08:54.291Z,100219.31
2023-11-07T21:11:23.358Z,100212.84
2023-11-07T21:13:52.353Z,100222.88
2023-11-07T21:16:20.123Z,100221.25
2023-11-07T21:18:49.049Z,100215.53
2023-11-07T21:21:17.686Z,100217.78
2023-11-07T21:23:45.552Z,100211.47
2023-11-07T21:26:14.515Z,100213.38
2023-11-07T21:28:43.617Z,100223.25
2023-11-07T21:31:11.363Z,100206.28
2023-11-07T21:33:39.913Z,100208.78
2023-11-07T21:36:08.002Z,100213.47
2023-11-07T21:38:35.863Z,100212.72
2023-11-07T21:41:03.588Z,100215.41
2023-11-07T21:43:31.317Z,100212.94
2023-11-07T21:46:01.388Z,100205.34
2023-11-07T21:48:30.004Z,100201.97
2023-11-07T21:50:57.815Z,100204.25
2023-11-07T21:53:25.954Z,100205.03
2023-11-07T21:55:54.540Z,100206.63
2023-11-07T21:58:22.553Z,100203.63
2023-11-07T22:00:50.215Z,100211.47
2023-11-07T22:03:19.863Z,100213.88
2023-11-07T22:05:47.589Z,100217.31
2023-11-07T22:08:15.340Z,100215.28
2023-11-07T22:10:43.052Z,100220.66
2023-11-07T22:13:10.757Z,100217.00
2023-11-07T22:15:38.768Z,100213.34
2023-11-07T22:18:06.729Z,100219.59
2023-11-07T22:20:38.202Z,100206.25
2023-11-07T22:23:06.086Z,100219.78
2023-11-07T22:25:33.814Z,100206.25
2023-11-07T22:28:01.526Z,100217.63
2023-11-07T22:30:29.204Z,100214.13
2023-11-07T22:32:56.929Z,100211.19
2023-11-07T22:35:24.644Z,100205.19
2023-11-07T22:37:54.163Z,100207.03
2023-11-07T22:40:22.659Z,100205.81
2023-11-07T22:42:50.487Z,100214.13
2023-11-07T22:45:19.284Z,100211.19
2023-11-07T22:47:47.356Z,100217.97
2023-11-07T22:50:15.085Z,100204.97
2023-11-07T22:52:43.173Z,100216.56
2023-11-07T22:55:12.989Z,100219.03
2023-11-07T22:57:40.810Z,100223.34
2023-11-07T23:00:11.892Z,100240.84
2023-11-07T23:02:40.581Z,100219.91
2023-11-07T23:05:09.032Z,100232.47
2023-11-07T23:07:36.695Z,100227.97
2023-11-07T23:10:05.082Z,100227.09
2023-11-07T23:12:34.196Z,100232.38
2023-11-07T23:15:01.932Z,100230.44
2023-11-07T23:17:29.774Z,100237.66
2023-11-07T23:19:57.467Z,100225.72
2023-11-07T23:22:25.150Z,100221.53
2023-11-07T23:24:53.642Z,100230.34
2023-11-07T23:27:21.394Z,100228.63
2023-11-07T23:29:55.472Z,100239.81
2023-11-07T23:32:23.166Z,100227.56
2023-11-07T23:34:51.038Z,100240.69
2023-11-07T23:37:21.669Z,100233.38
2023-11-07T23:39:49.683Z,100241.34
2023-11-07T23:42:18.258Z,100209.69
2023-11-07T23:44:45.968Z,100237.91
2023-11-07T23:47:15.340Z,100230.50
2023-11-07T23:49:42.032Z,100240.47
2023-11-07T23:52:11.920Z,100236.69
2023-11-07T23:54:39.656Z,100238.31
2023-11-07T23:57:07.468Z,100243.69
2023-11-07T23:59:35.590Z,100248.66
